Time;durP1;ratioP1;P1;durP2;ratioP2;P2;SDS_P1;SDS_P2;PMS_P1;PMS_P2;Temp;Humidity;BMP_temperature;BMP_pressure;BME280_temperature;BME280_humidity;BME280_pressure;Samples;Min_cycle;Max_cycle;Signal;HPM_P1;HPM_P2
2022/11/29 00:01:34;;;;;;;0.10;0.10;;;8.00;99.90;;;;;;5050746;28;20066;-84
2022/11/29 00:04:02;;;;;;;0.10;0.10;;;7.90;99.90;;;;;;5049663;28;20110;-84
2022/11/29 00:06:30;;;;;;;0.10;0.10;;;7.90;99.90;;;;;;5052647;28;20487;-83
2022/11/29 00:08:59;;;;;;;0.10;0.10;;;8.40;99.90;;;;;;5046960;28;20174;-83
2022/11/29 00:14:19;;;;;;;0.10;0.10;;;8.00;99.90;;;;;;5072088;28;20045;-83
2022/11/29 00:16:49;;;;;;;0.10;0.10;;;8.00;99.90;;;;;;5066397;28;20056;-84
2022/11/29 00:19:16;;;;;;;0.10;0.10;;;8.00;99.90;;;;;;5069885;28;20396;-84
2022/11/29 00:21:43;;;;;;;0.10;0.10;;;8.00;99.90;;;;;;5052566;28;20044;-83
2022/11/29 00:24:11;;;;;;;0.10;0.10;;;8.00;99.90;;;;;;5070972;28;20099;-84
2022/11/29 00:26:39;;;;;;;0.10;0.10;;;8.00;99.90;;;;;;5049984;28;20097;-84
2022/11/29 00:29:06;;;;;;;0.10;0.10;;;;;;;;;;5052335;28;20097;-84
2022/11/29 00:31:33;;;;;;;0.10;0.10;;;8.00;99.90;;;;;;5066711;28;20048;-84
2022/11/29 00:34:03;;;;;;;0.10;0.10;;;8.00;99.90;;;;;;5068732;28;20477;-84
2022/11/29 00:36:30;;;;;;;;;;;8.00;99.90;;;;;;5056870;28;20052;-85
2022/11/29 00:38:58;;;;;;;0.10;0.10;;;;;;;;;;5056811;28;19924;-83
2022/11/29 00:41:25;;;;;;;0.10;0.10;;;;;;;;;;5069690;28;20040;-84
2022/11/29 00:43:54;;;;;;;0.10;0.10;;;8.00;99.90;;;;;;5070379;28;20098;-84
2022/11/29 00:46:21;;;;;;;0.10;0.10;;;;;;;;;;5059053;28;20109;-85
2022/11/29 00:48:48;;;;;;;0.10;0.10;;;8.00;99.90;;;;;;5054104;28;20083;-84
2022/11/29 00:51:15;;;;;;;0.10;0.10;;;;;;;;;;5063233;28;20044;-85
2022/11/29 00:53:42;;;;;;;0.10;0.10;;;8.00;99.90;;;;;;5069243;28;20056;-84
2022/11/29 00:56:10;;;;;;;0.10;0.10;;;;;;;;;;5060697;28;20044;-85
2022/11/29 00:58:37;;;;;;;0.10;0.10;;;;;;;;;;5056813;28;20076;-82
2022/11/29 01:01:05;;;;;;;0.10;0.10;;;8.00;99.90;;;;;;5052583;28;20040;-83
2022/11/29 01:03:33;;;;;;;0.10;0.10;;;8.10;99.90;;;;;;5068416;28;20052;-84
2022/11/29 01:06:01;;;;;;;0.10;0.10;;;8.00;99.90;;;;;;5069256;28;20472;-85
2022/11/29 01:08:28;;;;;;;0.10;0.10;;;;;;;;;;5052497;28;20048;-83
2022/11/29 01:11:04;;;;;;;0.10;0.10;;;8.00;99.90;;;;;;5053353;28;20110;-84
2022/11/29 01:13:32;;;;;;;0.10;0.10;;;8.00;99.90;;;;;;5053178;28;20490;-84
2022/11/29 01:15:59;;;;;;;0.10;0.10;;;;;;;;;;5055835;28;20048;-85
2022/11/29 01:18:29;;;;;;;0.10;0.10;;;8.00;99.90;;;;;;5059093;28;20101;-85
2022/11/29 01:21:00;;;;;;;0.10;0.10;;;8.00;99.90;;;;;;5053187;28;20044;-83
2022/11/29 01:23:28;;;;;;;0.10;0.10;;;8.00;99.90;;;;;;5053307;28;20115;-84
2022/11/29 01:25:56;;;;;;;0.10;0.10;;;8.10;99.90;;;;;;5054663;28;20105;-84
2022/11/29 01:28:23;;;;;;;0.10;0.10;;;10.10;99.90;;;;;;5055974;28;20040;-84
2022/11/29 01:30:51;;;;;;;0.10;0.10;;;;;;;;;;5052363;28;20086;-84
2022/11/29 01:33:18;;;;;;;0.10;0.10;;;8.00;99.90;;;;;;5065502;28;20040;-85
2022/11/29 01:35:48;;;;;;;0.10;0.10;;;8.10;99.90;;;;;;5052688;28;20048;-84
2022/11/29 01:38:15;;;;;;;0.10;0.10;;;;;;;;;;5053531;28;20448;-84
2022/11/29 01:40:43;;;;;;;0.10;0.10;;;;;;;;;;5050395;28;20036;-84
2022/11/29 01:43:15;;;;;;;0.10;0.10;;;8.00;99.90;;;;;;5054441;28;20044;-84
2022/11/29 01:45:43;;;;;;;0.10;0.10;;;8.00;99.90;;;;;;5067339;28;20045;-83
2022/11/29 01:48:13;;;;;;;0.10;0.10;;;8.00;99.90;;;;;;5054367;28;20407;-84
2022/11/29 01:50:41;;;;;;;0.10;0.10;;;8.00;99.90;;;;;;5069231;28;20098;-84
2022/11/29 01:53:12;;;;;;;0.10;0.10;;;8.00;99.90;;;;;;5049706;28;20048;-84
2022/11/29 01:55:44;;;;;;;0.10;0.10;;;8.00;99.90;;;;;;5056449;28;20044;-85
2022/11/29 01:58:11;;;;;;;0.10;0.10;;;8.00;99.90;;;;;;5067271;28;20068;-84
2022/11/29 02:00:38;;;;;;;0.10;0.10;;;;;;;;;;5053201;28;20040;-84
2022/11/29 02:03:09;;;;;;;0.10;0.10;;;8.00;99.90;;;;;;5051187;28;20062;-84
2022/11/29 02:05:39;;;;;;;0.10;0.10;;;8.00;99.90;;;;;;5053434;28;20055;-85
2022/11/29 02:08:09;;;;;;;0.10;0.10;;;8.00;99.90;;;;;;5060965;28;20059;-85
2022/11/29 02:10:50;;;;;;;0.10;0.10;;;8.00;99.90;;;;;;5048831;28;20076;-82
2022/11/29 02:13:25;;;;;;;0.10;0.10;;;7.90;99.90;;;;;;5051016;28;20053;-84
2022/11/29 02:16:02;;;;;;;0.10;0.10;;;7.90;99.90;;;;;;5070094;28;20044;-84
2022/11/29 02:18:39;;;;;;;0.10;0.10;;;7.90;99.90;;;;;;5050535;28;20492;-85
2022/11/29 02:21:20;;;;;;;0.10;0.10;;;8.10;99.90;;;;;;5067282;28;20162;-85
2022/11/29 02:24:20;;;;;;;0.10;0.10;;;8.00;99.90;;;;;;5050756;28;20048;-85
2022/11/29 02:27:13;;;;;;;0.10;0.10;;;8.00;99.90;;;;;;5045137;28;20040;-85
2022/11/29 02:30:22;;;;;;;0.10;0.10;;;8.00;99.90;;;;;;5051285;28;20315;-82
2022/11/29 02:33:21;;;;;;;0.10;0.10;;;8.00;99.90;;;;;;5017266;28;20060;-85
2022/11/29 02:36:14;;;;;;;0.10;0.10;;;8.00;99.90;;;;;;5066161;28;20102;-85
2022/11/29 02:38:59;;;;;;;0.10;0.10;;;8.00;99.90;;;;;;5065054;28;20056;-85
2022/11/29 02:41:45;;;;;;;0.10;0.10;;;8.00;99.90;;;;;;5049983;28;20045;-85
2022/11/29 02:44:39;;;;;;;0.10;0.10;;;8.00;99.90;;;;;;5068542;28;20103;-83
2022/11/29 02:47:16;;;;;;;0.10;0.10;;;8.00;99.90;;;;;;5049545;28;20041;-85
2022/11/29 02:50:07;;;;;;;0.10;0.10;;;8.00;99.90;;;;;;5063082;28;20439;-85
2022/11/29 02:52:43;;;;;;;0.10;0.10;;;8.30;99.90;;;;;;5067799;28;20044;-85
2022/11/29 02:55:19;;;;;;;0.10;0.10;;;8.00;99.90;;;;;;5068114;28;20094;-83
2022/11/29 02:57:53;;;;;;;0.10;0.10;;;8.00;99.90;;;;;;5063416;28;20500;-83
2022/11/29 03:00:22;;;;;;;0.10;0.10;;;8.00;99.90;;;;;;5046517;28;20036;-84
2022/11/29 03:02:54;;;;;;;0.10;0.10;;;8.00;99.90;;;;;;5043118;28;20118;-85
2022/11/29 03:05:31;;;;;;;0.00;0.00;;;8.00;99.90;;;;;;5045882;28;20104;-85
2022/11/29 03:08:04;;;;;;;0.03;0.03;;;7.90;99.90;;;;;;5048193;28;20118;-85
2022/11/29 03:10:40;;;;;;;0.10;0.10;;;7.90;99.90;;;;;;5046495;28;20097;-85
2022/11/29 03:13:18;;;;;;;0.10;0.10;;;8.00;99.90;;;;;;5049472;28;20048;-85
2022/11/29 03:15:55;;;;;;;0.10;0.10;;;7.00;99.90;;;;;;5064600;28;20048;-85
2022/11/29 03:18:34;;;;;;;0.10;0.10;;;8.00;99.90;;;;;;5070840;28;20050;-85
2022/11/29 03:21:17;;;;;;;0.10;0.10;;;8.00;99.90;;;;;;5048474;28;20188;-85
2022/11/29 03:23:47;;;;;;;0.10;0.10;;;8.00;99.90;;;;;;5052033;28;20060;-85
2022/11/29 03:26:17;;;;;;;;;;;8.10;99.90;;;;;;5051274;28;20068;-80
2022/11/29 03:28:47;;;;;;;;;;;8.10;99.90;;;;;;5064734;28;19928;-85
2022/11/29 03:31:17;;;;;;;;;;;8.00;99.90;;;;;;5042189;28;20013;-84
2022/11/29 03:33:47;;;;;;;;;;;8.00;99.90;;;;;;5046716;28;19946;-83
2022/11/29 03:36:25;;;;;;;0.10;0.10;;;8.00;99.90;;;;;;5067879;28;19942;-84
2022/11/29 03:38:57;;;;;;;0.10;0.10;;;8.00;99.90;;;;;;5045618;28;20499;-85
2022/11/29 03:41:29;;;;;;;0.10;0.10;;;8.00;99.90;;;;;;5048824;28;20072;-85
2022/11/29 03:44:01;;;;;;;0.10;0.10;;;8.00;99.90;;;;;;5065711;28;20083;-84
2022/11/29 03:46:35;;;;;;;0.10;0.10;;;8.00;99.90;;;;;;5063551;28;20470;-83
2022/11/29 03:49:08;;;;;;;0.10;0.10;;;8.00;99.90;;;;;;5074782;28;20036;-84
2022/11/29 03:51:50;;;;;;;0.10;0.10;;;8.00;99.90;;;;;;5052108;28;20043;-82
2022/11/29 03:54:21;;;;;;;0.10;0.10;;;8.00;99.90;;;;;;5070735;28;20044;-85
2022/11/29 03:56:49;;;;;;;0.10;0.10;;;8.00;99.90;;;;;;5064576;28;20588;-85
2022/11/29 03:59:28;;;;;;;0.10;0.10;;;8.00;99.90;;;;;;5049965;28;20326;-85
2022/11/29 04:02:08;;;;;;;0.10;0.10;;;8.00;99.90;;;;;;5054452;28;20060;-84
2022/11/29 04:04:44;;;;;;;;;;;8.00;99.90;;;;;;5063731;28;20052;-84
2022/11/29 04:07:29;;;;;;;0.10;0.10;;;8.00;99.90;;;;;;5054741;28;19928;-83
2022/11/29 04:10:13;;;;;;;0.10;0.10;;;8.00;99.90;;;;;;5069150;28;20054;-85
2022/11/29 04:12:56;;;;;;;0.10;0.10;;;8.20;99.90;;;;;;5070768;28;20566;-84
2022/11/29 04:15:48;;;;;;;0.10;0.10;;;8.00;99.90;;;;;;5066403;28;20057;-85
2022/11/29 04:18:59;;;;;;;0.10;0.10;;;8.00;99.90;;;;;;5054479;28;20041;-84
2022/11/29 04:21:32;;;;;;;0.10;0.10;;;8.00;99.90;;;;;;5045523;28;20067;-84
2022/11/29 04:24:27;;;;;;;0.10;0.10;;;8.00;99.90;;;;;;5068931;28;20420;-84
2022/11/29 04:27:27;;;;;;;0.15;0.15;;;8.00;99.90;;;;;;5050128;28;20048;-85
2022/11/29 04:30:05;;;;;;;0.10;0.10;;;8.00;99.90;;;;;;5068070;28;20048;-85
2022/11/29 04:32:54;;;;;;;0.10;0.10;;;8.00;99.90;;;;;;5054674;28;20090;-84
2022/11/29 04:35:41;;;;;;;0.10;0.10;;;9.20;99.90;;;;;;5063755;28;20101;-85
2022/11/29 04:38:35;;;;;;;0.10;0.10;;;8.00;99.90;;;;;;5072360;28;20459;-86
2022/11/29 04:41:18;;;;;;;0.10;0.10;;;8.00;99.90;;;;;;5050803;28;20048;-84
2022/11/29 04:44:26;;;;;;;0.10;0.10;;;8.20;99.90;;;;;;5051490;28;20060;-85
2022/11/29 04:47:27;;;;;;;0.10;0.10;;;8.00;99.90;;;;;;5070363;28;20570;-84
2022/11/29 04:50:13;;;;;;;0.10;0.10;;;8.10;99.90;;;;;;5071396;28;20052;-84
2022/11/29 04:53:07;;;;;;;0.10;0.10;;;8.10;99.90;;;;;;5065456;28;20071;-85
2022/11/29 04:55:42;;;;;;;0.10;0.10;;;8.10;99.90;;;;;;5066010;28;20052;-84
2022/11/29 04:58:19;;;;;;;0.10;0.10;;;8.10;99.90;;;;;;5056648;28;20052;-84
2022/11/29 05:00:58;;;;;;;0.10;0.10;;;8.10;99.90;;;;;;5066812;28;20049;-85
2022/11/29 05:03:37;;;;;;;0.10;0.10;;;8.10;99.90;;;;;;5066490;28;20463;-85
2022/11/29 05:06:19;;;;;;;0.10;0.10;;;8.10;99.90;;;;;;5063796;28;20466;-84
2022/11/29 05:08:56;;;;;;;0.10;0.10;;;8.10;99.90;;;;;;5069007;28;20692;-84
2022/11/29 05:11:33;;;;;;;0.10;0.10;;;9.40;99.90;;;;;;5064758;28;20048;-83
2022/11/29 05:14:10;;;;;;;0.10;0.10;;;8.10;99.90;;;;;;5071357;28;20041;-84
2022/11/29 05:17:02;;;;;;;0.10;0.10;;;8.10;99.90;;;;;;5068204;28;20048;-82
2022/11/29 05:19:50;;;;;;;0.10;0.10;;;10.10;99.90;;;;;;5055180;28;20088;-84
2022/11/29 05:22:30;;;;;;;0.10;0.10;;;8.40;99.90;;;;;;5071683;28;20067;-85
2022/11/29 05:25:09;;;;;;;0.10;0.10;;;8.10;99.90;;;;;;5053324;28;20051;-86
2022/11/29 05:27:44;;;;;;;0.10;0.10;;;8.10;99.90;;;;;;5065191;28;20045;-85
2022/11/29 05:30:14;;;;;;;0.10;0.10;;;8.10;99.90;;;;;;5052179;28;20122;-84
2022/11/29 05:32:54;;;;;;;0.10;0.10;;;8.10;99.90;;;;;;5053250;28;20123;-84
2022/11/29 05:35:50;;;;;;;0.10;0.10;;;8.00;99.90;;;;;;5069907;28;20049;-85
2022/11/29 05:38:48;;;;;;;0.10;0.10;;;8.00;99.90;;;;;;5051955;28;20106;-85
2022/11/29 05:41:43;;;;;;;0.10;0.10;;;8.10;99.90;;;;;;5062878;28;20098;-84
2022/11/29 05:44:15;;;;;;;0.10;0.10;;;8.10;99.90;;;;;;5064830;28;20053;-84
2022/11/29 05:49:24;;;;;;;0.10;0.10;;;8.10;99.90;;;;;;5042436;28;20527;-81
2022/11/29 05:52:02;;;;;;;0.10;0.10;;;8.10;99.90;;;;;;5027039;28;20087;-80
2022/11/29 05:54:33;;;;;;;0.10;0.10;;;8.10;99.90;;;;;;5027980;28;20045;-81
2022/11/29 05:57:12;;;;;;;0.10;0.10;;;8.00;99.90;;;;;;5024032;28;20084;-81
2022/11/29 05:59:41;;;;;;;0.10;0.10;;;8.10;99.90;;;;;;5049405;28;20037;-80
2022/11/29 06:02:21;;;;;;;0.10;0.10;;;8.10;99.90;;;;;;5025979;28;20049;-81
2022/11/29 06:05:02;;;;;;;;;;;8.10;99.90;;;;;;5028252;28;20485;-80
2022/11/29 06:07:37;;;;;;;0.10;0.10;;;8.00;99.90;;;;;;5028429;28;19921;-80
2022/11/29 06:10:10;;;;;;;0.10;0.10;;;8.00;99.90;;;;;;5046176;28;20124;-80
2022/11/29 06:12:38;;;;;;;0.10;0.10;;;8.00;99.90;;;;;;5031213;28;20302;-80
2022/11/29 06:15:31;;;;;;;0.10;0.10;;;8.00;99.90;;;;;;5028152;28;20471;-80
2022/11/29 06:18:14;;;;;;;0.10;0.10;;;8.00;99.90;;;;;;5029091;28;20048;-80
2022/11/29 06:20:57;;;;;;;0.10;0.10;;;8.00;99.90;;;;;;5031225;28;20110;-80
2022/11/29 06:23:41;;;;;;;0.10;0.10;;;8.00;99.90;;;;;;5048924;28;20756;-80
2022/11/29 06:26:25;;;;;;;0.10;0.10;;;8.10;99.90;;;;;;5038398;28;20168;-81
2022/11/29 06:29:01;;;;;;;0.10;0.10;;;9.60;99.90;;;;;;5043265;28;20122;-81
2022/11/29 06:31:33;;;;;;;0.10;0.10;;;8.10;99.90;;;;;;5030156;28;20053;-81
2022/11/29 06:34:06;;;;;;;0.10;0.10;;;8.10;99.90;;;;;;5050959;28;20049;-80
2022/11/29 06:36:41;;;;;;;0.10;0.10;;;8.10;99.90;;;;;;5032117;28;20045;-81
2022/11/29 06:39:09;;;;;;;0.10;0.10;;;8.10;99.90;;;;;;5051421;28;20048;-81
2022/11/29 06:41:36;;;;;;;0.10;0.10;;;8.10;99.90;;;;;;5046787;28;20048;-81
2022/11/29 06:44:04;;;;;;;0.10;0.10;;;8.10;99.90;;;;;;5032322;28;20047;-81
2022/11/29 06:46:44;;;;;;;0.10;0.10;;;8.10;99.90;;;;;;5029190;28;20041;-81
2022/11/29 06:49:17;;;;;;;0.10;0.10;;;8.10;99.90;;;;;;5031274;28;20052;-81
2022/11/29 06:51:59;;;;;;;0.10;0.10;;;8.10;99.90;;;;;;5030295;28;20040;-80
2022/11/29 06:54:46;;;;;;;0.10;0.10;;;8.10;99.90;;;;;;5046248;28;20053;-80
2022/11/29 06:57:22;;;;;;;0.10;0.10;;;8.20;99.90;;;;;;5046012;28;20063;-81
2022/11/29 07:00:04;;;;;;;0.10;0.10;;;8.20;99.90;;;;;;5031417;28;20052;-80
2022/11/29 07:02:50;;;;;;;0.10;0.10;;;8.20;99.90;;;;;;5029394;28;20045;-81
2022/11/29 07:05:23;;;;;;;0.10;0.10;;;8.20;99.90;;;;;;5043272;28;20045;-80
2022/11/29 07:07:54;;;;;;;0.10;0.10;;;8.20;99.90;;;;;;5025141;28;20108;-80
2022/11/29 07:10:22;;;;;;;0.10;0.10;;;8.20;99.90;;;;;;5047462;28;20067;-80
2022/11/29 07:12:50;;;;;;;0.10;0.10;;;8.20;99.90;;;;;;5030699;28;20044;-80
2022/11/29 07:15:20;;;;;;;0.10;0.10;;;8.20;99.90;;;;;;5026163;28;20508;-80
2022/11/29 07:17:57;;;;;;;0.10;0.10;;;8.20;99.90;;;;;;5030171;28;20049;-80
2022/11/29 07:20:31;;;;;;;0.10;0.10;;;8.20;99.90;;;;;;5049087;28;20056;-80
2022/11/29 07:23:09;;;;;;;0.10;0.10;;;8.20;99.90;;;;;;5026002;28;20045;-80
2022/11/29 07:25:47;;;;;;;0.10;0.10;;;8.20;99.90;;;;;;5028143;28;20200;-81
2022/11/29 07:28:26;;;;;;;0.10;0.10;;;8.20;99.90;;;;;;5043313;28;20045;-81
2022/11/29 07:31:01;;;;;;;0.10;0.10;;;8.20;99.90;;;;;;5029601;28;20103;-81
2022/11/29 07:33:40;;;;;;;0.10;0.10;;;8.20;99.90;;;;;;5048582;28;20303;-80
2022/11/29 07:36:14;;;;;;;0.10;0.10;;;8.20;99.90;;;;;;5024592;28;20045;-80
2022/11/29 07:38:54;;;;;;;0.10;0.10;;;8.30;99.90;;;;;;5032238;28;20146;-79
2022/11/29 07:41:28;;;;;;;0.10;0.10;;;8.30;99.90;;;;;;5043029;28;20051;-81
2022/11/29 07:44:02;;;;;;;0.00;0.00;;;8.30;99.90;;;;;;5021462;28;20492;-81
2022/11/29 07:46:29;;;;;;;0.10;0.10;;;8.30;99.90;;;;;;5043191;28;20050;-81
2022/11/29 07:48:57;;;;;;;0.10;0.10;;;8.30;99.90;;;;;;5024294;28;20060;-81
2022/11/29 07:51:24;;;;;;;0.10;0.10;;;8.40;99.90;;;;;;5047070;28;20408;-81
2022/11/29 07:53:52;;;;;;;0.10;0.10;;;8.40;99.90;;;;;;5048857;28;20106;-81
2022/11/29 07:56:19;;;;;;;0.10;0.10;;;8.30;99.90;;;;;;5027202;28;20045;-81
2022/11/29 07:58:46;;;;;;;0.10;0.10;;;8.20;99.90;;;;;;5032101;28;20061;-80
2022/11/29 08:01:14;;;;;;;0.10;0.10;;;;;;;;;;5030753;28;20049;-80
2022/11/29 08:03:41;;;;;;;0.10;0.10;;;8.20;99.90;;;;;;5049459;28;20071;-80
2022/11/29 08:06:08;;;;;;;0.10;0.10;;;8.80;99.90;;;;;;5027800;28;20068;-80
2022/11/29 08:08:35;;;;;;;0.10;0.10;;;;;;;;;;5030583;28;20049;-80
2022/11/29 08:11:11;;;;;;;0.10;0.10;;;8.20;99.90;;;;;;5027614;28;20049;-81
2022/11/29 08:13:38;;;;;;;0.10;0.10;;;8.30;99.90;;;;;;5031271;28;20132;-80
2022/11/29 08:16:06;;;;;;;0.10;0.10;;;;;;;;;;5045219;28;20514;-80
2022/11/29 08:18:34;;;;;;;0.10;0.10;;;8.30;99.90;;;;;;5032922;28;20045;-80
2022/11/29 08:21:05;;;;;;;0.10;0.10;;;8.40;99.90;;;;;;5028279;28;20099;-80
2022/11/29 08:23:32;;;;;;;0.10;0.10;;;8.40;99.90;;;;;;5047584;28;20091;-80
2022/11/29 08:25:59;;;;;;;0.10;0.10;;;8.40;99.90;;;;;;5027496;28;20076;-81
2022/11/29 08:28:28;;;;;;;0.10;0.10;;;8.40;99.90;;;;;;5043294;28;20527;-81
2022/11/29 08:31:00;;;;;;;0.10;0.10;;;8.40;99.90;;;;;;5046826;28;20037;-80
2022/11/29 08:33:27;;;;;;;0.10;0.10;;;8.40;99.90;;;;;;5050888;28;20049;-81
2022/11/29 08:35:54;;;;;;;0.10;0.10;;;8.50;99.90;;;;;;5035553;28;20044;-80
2022/11/29 08:38:21;;;;;;;0.10;0.10;;;8.50;99.90;;;;;;5036375;28;20040;-81
2022/11/29 08:40:48;;;;;;;0.10;0.10;;;8.50;99.90;;;;;;5052931;28;20107;-80
2022/11/29 08:43:14;;;;;;;0.10;0.10;;;8.60;99.90;;;;;;5031506;28;20060;-81
2022/11/29 08:45:43;;;;;;;0.10;0.10;;;8.50;99.90;;;;;;5039390;28;20114;-80
2022/11/29 08:48:12;;;;;;;0.10;0.10;;;8.60;99.90;;;;;;5034428;28;20045;-81
2022/11/29 08:50:39;;;;;;;0.10;0.10;;;8.60;99.90;;;;;;5054116;28;20109;-81
2022/11/29 08:55:52;;;;;;;0.10;0.10;;;8.60;99.90;;;;;;5048270;28;20041;-81
2022/11/29 08:58:20;;;;;;;0.10;0.10;;;8.70;99.90;;;;;;5032122;28;20045;-81
2022/11/29 09:00:48;;;;;;;0.10;0.10;;;8.60;99.90;;;;;;5038749;28;20527;-81
2022/11/29 09:06:05;;;;;;;0.10;0.10;;;8.60;99.90;;;;;;5048416;28;20080;-81
2022/11/29 09:08:39;;;;;;;0.10;0.10;;;8.60;99.90;;;;;;5052832;28;20049;-80
2022/11/29 09:11:07;;;;;;;0.10;0.10;;;8.60;99.90;;;;;;5027566;28;20076;-81
2022/11/29 09:13:34;;;;;;;0.10;0.10;;;8.70;99.90;;;;;;5030339;28;20103;-82
2022/11/29 09:16:07;;;;;;;0.10;0.10;;;8.70;99.90;;;;;;5049693;28;20049;-80
2022/11/29 09:18:37;;;;;;;0.10;0.10;;;8.70;99.90;;;;;;5043839;28;20171;-80
2022/11/29 09:21:05;;;;;;;0.10;0.10;;;8.70;99.90;;;;;;5034250;28;20102;-81
2022/11/29 09:23:32;;;;;;;0.10;0.10;;;8.70;99.90;;;;;;5039826;28;20053;-81
2022/11/29 09:25:59;;;;;;;0.08;0.08;;;8.80;99.90;;;;;;5037698;28;20102;-81
2022/11/29 09:28:26;;;;;;;0.10;0.10;;;8.80;99.90;;;;;;5037298;28;20138;-81
2022/11/29 09:30:54;;;;;;;0.10;0.10;;;;;;;;;;5048788;28;20052;-80
2022/11/29 09:33:22;;;;;;;0.10;0.10;;;8.90;99.90;;;;;;5038018;28;20390;-80
2022/11/29 09:35:49;;;;;;;0.10;0.10;;;;;;;;;;5032145;28;20056;-81
2022/11/29 09:38:16;;;;;;;0.10;0.10;;;8.90;99.90;;;;;;5053312;28;20497;-80
2022/11/29 09:40:51;;;;;;;0.10;0.10;;;8.90;99.90;;;;;;5030573;28;20060;-80
2022/11/29 09:43:25;;;;;;;0.10;0.10;;;8.90;99.90;;;;;;5034729;28;20045;-81
2022/11/29 09:45:58;;;;;;;0.10;0.10;;;8.90;99.90;;;;;;5043167;28;20092;-80
2022/11/29 09:48:38;;;;;;;0.10;0.10;;;8.90;99.90;;;;;;5035632;28;20041;-80
2022/11/29 09:51:16;;;;;;;0.03;0.03;;;9.00;99.90;;;;;;5050425;28;20064;-80
2022/11/29 09:53:57;;;;;;;0.10;0.10;;;9.00;99.90;;;;;;5035190;28;20493;-80
2022/11/29 09:56:33;;;;;;;0.10;0.10;;;9.00;99.90;;;;;;5033127;28;20115;-80
2022/11/29 09:59:06;;;;;;;0.10;0.10;;;9.10;99.90;;;;;;5051943;28;20202;-80
2022/11/29 10:01:37;;;;;;;0.10;0.10;;;9.10;99.90;;;;;;5046345;28;20080;-80
2022/11/29 10:04:12;;;;;;;0.10;0.10;;;9.10;99.90;;;;;;5049116;28;20072;-80
2022/11/29 10:06:43;;;;;;;0.10;0.10;;;9.10;99.90;;;;;;5027909;28;20077;-80
2022/11/29 10:09:16;;;;;;;0.10;0.10;;;9.10;99.90;;;;;;5030725;28;20049;-80
2022/11/29 10:11:55;;;;;;;0.10;0.10;;;9.10;99.90;;;;;;5031881;28;20049;-80
2022/11/29 10:14:28;;;;;;;0.10;0.10;;;9.10;99.90;;;;;;5033101;28;20493;-81
2022/11/29 10:17:03;;;;;;;0.10;0.10;;;9.20;99.90;;;;;;5050966;28;20472;-80
2022/11/29 10:19:36;;;;;;;0.10;0.10;;;9.20;99.90;;;;;;5047780;28;20099;-80
2022/11/29 10:22:09;;;;;;;0.10;0.10;;;9.20;99.90;;;;;;5051228;28;20052;-81
2022/11/29 10:24:37;;;;;;;0.10;0.10;;;9.20;99.90;;;;;;5027247;28;20033;-80
2022/11/29 10:27:11;;;;;;;0.10;0.10;;;9.70;99.90;;;;;;5030747;28;20099;-80
2022/11/29 10:29:38;;;;;;;0.08;0.08;;;9.30;99.90;;;;;;5032857;28;20103;-80
2022/11/29 10:32:12;;;;;;;0.10;0.10;;;9.30;99.90;;;;;;5028643;28;20041;-80
2022/11/29 10:34:42;;;;;;;0.10;0.10;;;9.10;99.90;;;;;;5033438;28;20420;-81
2022/11/29 10:37:13;;;;;;;0.10;0.10;;;9.20;99.90;;;;;;5029379;28;20498;-81
2022/11/29 10:39:43;;;;;;;0.10;0.10;;;11.50;99.90;;;;;;5033706;28;20053;-80
2022/11/29 10:45:01;;;;;;;0.10;0.10;;;9.10;99.90;;;;;;5051783;28;20096;-80
2022/11/29 10:47:29;;;;;;;0.10;0.10;;;9.10;99.90;;;;;;5041280;28;20100;-81
2022/11/29 10:49:58;;;;;;;0.10;0.10;;;9.10;99.90;;;;;;5043798;28;20706;-81
2022/11/29 10:52:25;;;;;;;0.10;0.10;;;9.10;99.90;;;;;;5024975;28;20493;-81
2022/11/29 10:54:56;;;;;;;0.10;0.10;;;9.20;99.90;;;;;;5030912;28;20048;-81
2022/11/29 10:57:23;;;;;;;0.10;0.10;;;9.20;99.90;;;;;;5040206;28;20060;-81
2022/11/29 10:59:59;;;;;;;0.10;0.10;;;9.30;99.90;;;;;;5022746;28;20061;-81
2022/11/29 11:02:26;;;;;;;0.00;0.00;;;9.30;99.90;;;;;;5042838;28;20047;-81
2022/11/29 11:04:53;;;;;;;0.10;0.10;;;9.40;99.90;;;;;;5025972;28;20047;-80
2022/11/29 11:07:26;;;;;;;0.05;0.05;;;9.30;99.90;;;;;;5023297;28;20067;-80
2022/11/29 11:09:56;;;;;;;0.10;0.10;;;9.40;99.90;;;;;;5044967;28;20104;-80
2022/11/29 11:12:26;;;;;;;0.10;0.10;;;9.40;99.90;;;;;;5024036;28;20496;-81
2022/11/29 11:15:14;;;;;;;0.10;0.10;;;9.40;99.90;;;;;;5027756;28;20087;-81
2022/11/29 11:17:55;;;;;;;0.00;0.00;;;9.40;99.90;;;;;;5025363;28;20068;-80
2022/11/29 11:20:23;;;;;;;0.10;0.10;;;9.40;99.90;;;;;;5038849;28;20049;-81
2022/11/29 11:22:58;;;;;;;0.10;0.10;;;9.40;99.90;;;;;;5030198;28;20052;-82
2022/11/29 11:25:29;;;;;;;0.10;0.10;;;9.50;99.90;;;;;;5029822;28;20053;-81
2022/11/29 11:28:09;;;;;;;0.10;0.10;;;9.40;99.90;;;;;;5028317;28;20484;-81
2022/11/29 11:30:36;;;;;;;0.10;0.10;;;9.40;99.90;;;;;;5027922;28;20049;-80
2022/11/29 11:33:08;;;;;;;0.00;0.00;;;9.40;99.90;;;;;;5037561;28;20044;-81
2022/11/29 11:35:36;;;;;;;0.10;0.10;;;9.40;99.90;;;;;;5035847;28;20174;-80
2022/11/29 11:38:04;;;;;;;0.10;0.10;;;9.40;99.90;;;;;;5029862;28;20041;-81
2022/11/29 11:40:33;;;;;;;0.00;0.00;;;9.40;99.90;;;;;;5025613;28;20098;-80
2022/11/29 11:43:02;;;;;;;0.10;0.10;;;9.50;99.90;;;;;;5028104;28;20041;-81
2022/11/29 11:45:32;;;;;;;0.00;0.00;;;9.10;99.90;;;;;;5029914;28;20107;-81
2022/11/29 11:50:31;;;;;;;0.10;0.10;;;9.70;99.90;;;;;;5033903;28;20060;-84
2022/11/29 11:53:03;;;;;;;0.10;0.10;;;9.70;99.90;;;;;;5018917;28;20041;-83
2022/11/29 11:55:36;;;;;;;0.10;0.10;;;9.70;99.90;;;;;;5009054;28;20041;-86
2022/11/29 11:58:15;;;;;;;0.10;0.10;;;9.70;99.90;;;;;;5038190;28;20049;-83
2022/11/29 12:00:48;;;;;;;0.10;0.10;;;9.60;99.90;;;;;;5014042;28;20387;-84
2022/11/29 12:03:42;;;;;;;0.10;0.10;;;9.60;99.90;;;;;;5018139;28;20049;-84
2022/11/29 12:06:26;;;;;;;0.10;0.10;;;9.60;99.90;;;;;;5013818;28;20143;-85
2022/11/29 12:08:57;;;;;;;0.10;0.10;;;9.60;99.90;;;;;;5017796;28;20468;-85
2022/11/29 12:11:28;;;;;;;0.10;0.10;;;9.60;99.90;;;;;;5014137;28;20054;-85
2022/11/29 12:13:58;;;;;;;0.00;0.00;;;11.10;99.90;;;;;;5033713;28;20050;-85
2022/11/29 12:16:30;;;;;;;0.10;0.10;;;9.60;99.90;;;;;;5029767;28;20053;-85
2022/11/29 12:19:01;;;;;;;0.10;0.10;;;12.10;99.90;;;;;;5018962;28;20053;-85
2022/11/29 12:21:36;;;;;;;0.10;0.10;;;9.60;99.90;;;;;;5016847;28;20049;-83
2022/11/29 12:24:15;;;;;;;0.10;0.10;;;9.60;99.90;;;;;;5033466;28;20099;-84
2022/11/29 12:26:43;;;;;;;0.00;0.00;;;9.70;99.90;;;;;;5033830;28;20123;-83
2022/11/29 12:29:30;;;;;;;0.10;0.10;;;9.70;99.90;;;;;;5023906;28;20498;-85
2022/11/29 12:32:14;;;;;;;0.05;0.05;;;9.70;99.90;;;;;;5018562;28;20057;-83
2022/11/29 12:35:03;;;;;;;0.10;0.10;;;9.70;99.90;;;;;;5015026;28;20045;-83
2022/11/29 12:37:38;;;;;;;0.10;0.10;;;9.80;99.90;;;;;;5027596;28;20049;-83
2022/11/29 12:40:13;;;;;;;0.10;0.10;;;9.70;99.90;;;;;;5006035;28;20061;-85
2022/11/29 12:42:50;;;;;;;0.10;0.10;;;9.80;99.90;;;;;;5006324;28;20049;-85
2022/11/29 12:45:28;;;;;;;0.00;0.00;;;9.80;99.90;;;;;;5038048;28;20579;-84
2022/11/29 12:48:05;;;;;;;0.00;0.00;;;9.80;99.90;;;;;;5022526;28;20444;-83
2022/11/29 12:50:43;;;;;;;0.10;0.10;;;9.90;99.90;;;;;;5018579;28;20048;-83
2022/11/29 12:53:25;;;;;;;0.00;0.00;;;9.90;99.90;;;;;;5016448;28;20084;-84
2022/11/29 12:56:03;;;;;;;0.00;0.00;;;9.90;99.90;;;;;;5015597;28;20072;-84
2022/11/29 12:58:41;;;;;;;0.10;0.10;;;9.90;99.90;;;;;;5021405;28;20053;-83
2022/11/29 13:01:20;;;;;;;0.10;0.10;;;10.20;99.90;;;;;;5013690;28;20053;-85
2022/11/29 13:03:55;;;;;;;0.10;0.10;;;10.00;99.90;;;;;;5016068;28;20648;-85
2022/11/29 13:06:29;;;;;;;0.10;0.10;;;10.00;99.90;;;;;;5012533;28;20045;-84
2022/11/29 13:09:24;;;;;;;0.10;0.10;;;10.00;99.90;;;;;;5027130;28;20115;-86
2022/11/29 13:11:54;;;;;;;0.00;0.00;;;10.10;99.90;;;;;;5033785;28;20110;-85
2022/11/29 13:14:29;;;;;;;0.10;0.10;;;10.10;99.90;;;;;;5036162;28;20087;-84
2022/11/29 13:17:23;;;;;;;0.00;0.00;;;11.20;99.90;;;;;;5021249;28;20429;-83
2022/11/29 13:19:54;;;;;;;0.10;0.10;;;10.20;99.90;;;;;;5018330;28;20045;-84
2022/11/29 13:22:27;;;;;;;0.10;0.10;;;10.10;99.90;;;;;;5017213;28;20049;-84
2022/11/29 13:25:00;;;;;;;0.10;0.10;;;10.10;99.90;;;;;;5036494;28;20052;-84
2022/11/29 13:27:33;;;;;;;0.00;0.00;;;10.20;99.90;;;;;;5004751;28;20481;-84
2022/11/29 13:30:03;;;;;;;0.00;0.00;;;10.20;99.90;;;;;;5018990;28;20046;-85
2022/11/29 13:32:34;;;;;;;;;;;10.20;99.90;;;;;;5034541;28;20101;-84
2022/11/29 13:35:07;;;;;;;0.10;0.10;;;10.20;99.90;;;;;;5026765;28;19917;-84
2022/11/29 13:37:42;;;;;;;0.00;0.00;;;10.10;99.90;;;;;;5026570;28;20064;-86
2022/11/29 13:40:20;;;;;;;0.10;0.10;;;10.10;99.90;;;;;;5031476;28;20129;-85
2022/11/29 13:43:06;;;;;;;0.10;0.10;;;10.10;99.90;;;;;;5018850;28;20095;-85
2022/11/29 13:45:54;;;;;;;0.00;0.00;;;9.80;99.90;;;;;;4991608;28;20049;-85
2022/11/29 13:48:35;;;;;;;0.00;0.00;;;9.70;99.90;;;;;;5035014;28;20049;-85
2022/11/29 13:51:31;;;;;;;0.10;0.10;;;9.70;99.90;;;;;;5030911;28;20045;-85
2022/11/29 13:54:03;;;;;;;0.00;0.00;;;9.80;99.90;;;;;;5036951;28;20030;-84
2022/11/29 13:56:41;;;;;;;0.10;0.10;;;9.80;99.90;;;;;;5020923;28;20525;-84
2022/11/29 13:59:17;;;;;;;0.10;0.10;;;9.90;99.90;;;;;;5018169;28;20478;-85